Terminal Aerodrome Forecast
Issued by NWS Duluth, MN

Home | Current Version | Previous Version | Text Only | Print | Product List | Glossary On
Versions: 1 2 3 4 5 6 7 8 9 10 11 12 13 14 15 16 17 18 19 20 21 22 23 24 25 26 27 28 29 30 31 32 33 34
000
FTUS43 KDLH 151400 AAA
TAFDLH
TAF AMD
KDLH 151456Z 1515/1612 VRB05KT 1/2SM FG OVC003
      TEMPO 1515/1517 1 1/2SM -RA BR OVC004
     FM151700 31010KT 2SM -RA BR OVC005
     FM152100 35012KT 2SM -RAPL OVC007
     FM160000 35014G20KT 1SM -SN BR OVC008
     FM160600 35016G26KT 3SM -SN BKN012 OVC025=

USA.gov is the U.S. government's official web portal to all federal, state and local government web resources and services.